sensor_id;sensor_type;location;lat;lon;timestamp;pressure;altitude;pressure_sealevel;temperature;humidity
74103;BME280;62853;46.166;3.640;2023-01-19T00:01:52;100062.31;;;-0.22;100.00
74103;BME280;62853;46.166;3.640;2023-01-19T00:04:18;100058.00;;;-0.22;100.00
74103;BME280;62853;46.166;3.640;2023-01-19T00:06:43;100064.00;;;-0.21;100.00
74103;BME280;62853;46.166;3.640;2023-01-19T00:09:08;100063.84;;;-0.13;100.00
74103;BME280;62853;46.166;3.640;2023-01-19T00:11:34;100066.56;;;-0.20;100.00
74103;BME280;62853;46.166;3.640;2023-01-19T00:13:59;100061.50;;;-0.24;100.00
74103;BME280;62853;46.166;3.640;2023-01-19T00:16:25;100058.91;;;-0.24;100.00
74103;BME280;62853;46.166;3.640;2023-01-19T00:18:51;100060.66;;;-0.25;100.00
74103;BME280;62853;46.166;3.640;2023-01-19T00:21:16;100067.44;;;-0.21;100.00
74103;BME280;62853;46.166;3.640;2023-01-19T00:23:43;100060.69;;;-0.26;100.00
74103;BME280;62853;46.166;3.640;2023-01-19T00:26:12;100063.31;;;-0.28;100.00
74103;BME280;62853;46.166;3.640;2023-01-19T00:28:38;100071.88;;;-0.26;100.00
74103;BME280;62853;46.166;3.640;2023-01-19T00:31:03;100070.91;;;-0.20;100.00
74103;BME280;62853;46.166;3.640;2023-01-19T00:33:28;100070.78;;;-0.15;100.00
74103;BME280;62853;46.166;3.640;2023-01-19T00:35:54;100078.50;;;-0.14;100.00
74103;BME280;62853;46.166;3.640;2023-01-19T00:38:20;100074.91;;;-0.07;100.00
74103;BME280;62853;46.166;3.640;2023-01-19T00:40:46;100068.88;;;-0.07;100.00
74103;BME280;62853;46.166;3.640;2023-01-19T00:43:12;100079.91;;;0.01;100.00
74103;BME280;62853;46.166;3.640;2023-01-19T00:45:37;100080.72;;;0.02;100.00
74103;BME280;62853;46.166;3.640;2023-01-19T00:48:02;100075.50;;;0.05;100.00
74103;BME280;62853;46.166;3.640;2023-01-19T00:50:29;100081.56;;;0.04;100.00
74103;BME280;62853;46.166;3.640;2023-01-19T00:52:56;100071.91;;;0.10;100.00
74103;BME280;62853;46.166;3.640;2023-01-19T00:55:22;100089.09;;;0.13;100.00
74103;BME280;62853;46.166;3.640;2023-01-19T00:57:48;100072.84;;;0.08;100.00
74103;BME280;62853;46.166;3.640;2023-01-19T01:00:16;100074.47;;;0.12;100.00
74103;BME280;62853;46.166;3.640;2023-01-19T01:02:43;100073.56;;;0.13;100.00
74103;BME280;62853;46.166;3.640;2023-01-19T01:05:09;100069.28;;;0.12;100.00
74103;BME280;62853;46.166;3.640;2023-01-19T01:07:35;100066.72;;;0.12;100.00
74103;BME280;62853;46.166;3.640;2023-01-19T01:10:20;100075.31;;;0.12;100.00
74103;BME280;62853;46.166;3.640;2023-01-19T01:12:46;100065.88;;;0.10;100.00
74103;BME280;62853;46.166;3.640;2023-01-19T01:15:13;100069.38;;;0.09;100.00
74103;BME280;62853;46.166;3.640;2023-01-19T01:17:39;100070.34;;;0.03;100.00
74103;BME280;62853;46.166;3.640;2023-01-19T01:20:20;100070.16;;;0.11;100.00
74103;BME280;62853;46.166;3.640;2023-01-19T01:22:48;100077.09;;;0.10;100.00
74103;BME280;62853;46.166;3.640;2023-01-19T01:25:16;100074.53;;;0.09;100.00
74103;BME280;62853;46.166;3.640;2023-01-19T01:27:41;100070.25;;;0.08;100.00
74103;BME280;62853;46.166;3.640;2023-01-19T01:30:09;100074.63;;;0.06;100.00
74103;BME280;62853;46.166;3.640;2023-01-19T01:32:35;100079.66;;;0.12;100.00
74103;BME280;62853;46.166;3.640;2023-01-19T01:35:01;100090.00;;;0.12;100.00
74103;BME280;62853;46.166;3.640;2023-01-19T01:37:26;100075.34;;;0.11;100.00
74103;BME280;62853;46.166;3.640;2023-01-19T01:39:51;100075.97;;;0.21;100.00
74103;BME280;62853;46.166;3.640;2023-01-19T01:42:19;100081.97;;;0.23;100.00
74103;BME280;62853;46.166;3.640;2023-01-19T01:44:57;100088.69;;;0.30;100.00
74103;BME280;62853;46.166;3.640;2023-01-19T01:47:30;100076.47;;;0.35;100.00
74103;BME280;62853;46.166;3.640;2023-01-19T01:50:16;100095.53;;;0.34;100.00
74103;BME280;62853;46.166;3.640;2023-01-19T01:52:58;100086.13;;;0.28;100.00
74103;BME280;62853;46.166;3.640;2023-01-19T01:55:27;100087.72;;;0.35;100.00
74103;BME280;62853;46.166;3.640;2023-01-19T01:58:00;100083.38;;;0.36;100.00
74103;BME280;62853;46.166;3.640;2023-01-19T02:00:27;100085.84;;;0.41;100.00
74103;BME280;62853;46.166;3.640;2023-01-19T02:03:13;100094.41;;;0.44;100.00
74103;BME280;62853;46.166;3.640;2023-01-19T02:05:40;100094.19;;;0.52;100.00
74103;BME280;62853;46.166;3.640;2023-01-19T02:08:25;100092.28;;;0.59;100.00
74103;BME280;62853;46.166;3.640;2023-01-19T02:11:11;100100.59;;;0.71;100.00
74103;BME280;62853;46.166;3.640;2023-01-19T02:13:56;100090.31;;;0.68;100.00
74103;BME280;62853;46.166;3.640;2023-01-19T02:16:21;100098.91;;;0.70;100.00
74103;BME280;62853;46.166;3.640;2023-01-19T02:18:46;100101.41;;;0.73;100.00
74103;BME280;62853;46.166;3.640;2023-01-19T02:23:54;100103.56;;;0.90;100.00
74103;BME280;62853;46.166;3.640;2023-01-19T02:26:30;100107.13;;;0.86;100.00
74103;BME280;62853;46.166;3.640;2023-01-19T02:29:10;100110.69;;;0.82;100.00
74103;BME280;62853;46.166;3.640;2023-01-19T02:31:37;100098.66;;;0.80;100.00
74103;BME280;62853;46.166;3.640;2023-01-19T02:34:05;100112.63;;;0.74;100.00
74103;BME280;62853;46.166;3.640;2023-01-19T02:36:37;100105.78;;;0.71;100.00
74103;BME280;62853;46.166;3.640;2023-01-19T02:39:05;100101.63;;;0.66;100.00
74103;BME280;62853;46.166;3.640;2023-01-19T02:41:35;100109.34;;;0.67;100.00
74103;BME280;62853;46.166;3.640;2023-01-19T02:44:03;100109.34;;;0.67;100.00
74103;BME280;62853;46.166;3.640;2023-01-19T02:46:30;100118.03;;;0.66;100.00
74103;BME280;62853;46.166;3.640;2023-01-19T02:48:59;100118.38;;;0.52;100.00
74103;BME280;62853;46.166;3.640;2023-01-19T02:51:25;100119.44;;;0.44;100.00
74103;BME280;62853;46.166;3.640;2023-01-19T03:05:10;100125.66;;;0.01;100.00
74103;BME280;62853;46.166;3.640;2023-01-19T03:18:19;100139.22;;;-0.29;100.00
74103;BME280;62853;46.166;3.640;2023-01-19T03:20:48;100140.19;;;-0.33;100.00
74103;BME280;62853;46.166;3.640;2023-01-19T03:23:16;100151.56;;;-0.42;100.00
74103;BME280;62853;46.166;3.640;2023-01-19T03:25:43;100143.94;;;-0.48;100.00
74103;BME280;62853;46.166;3.640;2023-01-19T03:28:12;100146.56;;;-0.49;100.00
74103;BME280;62853;46.166;3.640;2023-01-19T03:30:42;100147.53;;;-0.55;100.00
74103;BME280;62853;46.166;3.640;2023-01-19T03:33:15;100153.41;;;-0.47;100.00
74103;BME280;62853;46.166;3.640;2023-01-19T03:35:48;100142.41;;;-0.58;100.00
74103;BME280;62853;46.166;3.640;2023-01-19T03:38:19;100159.53;;;-0.52;100.00
74103;BME280;62853;46.166;3.640;2023-01-19T03:40:48;100146.84;;;-0.63;100.00
74103;BME280;62853;46.166;3.640;2023-01-19T03:43:15;100164.06;;;-0.62;100.00
74103;BME280;62853;46.166;3.640;2023-01-19T03:45:41;100164.84;;;-0.59;100.00
74103;BME280;62853;46.166;3.640;2023-01-19T03:48:07;100158.88;;;-0.61;100.00
74103;BME280;62853;46.166;3.640;2023-01-19T03:50:34;100182.88;;;-0.54;100.00
74103;BME280;62853;46.166;3.640;2023-01-19T03:53:11;100175.31;;;-0.65;100.00
74103;BME280;62853;46.166;3.640;2023-01-19T03:55:39;100184.03;;;-0.69;100.00
74103;BME280;62853;46.166;3.640;2023-01-19T03:58:05;100181.47;;;-0.70;100.00
74103;BME280;62853;46.166;3.640;2023-01-19T04:00:31;100184.13;;;-0.75;100.00
74103;BME280;62853;46.166;3.640;2023-01-19T04:02:57;100184.22;;;-0.81;100.00
74103;BME280;62853;46.166;3.640;2023-01-19T04:05:22;100182.34;;;-0.71;100.00
74103;BME280;62853;46.166;3.640;2023-01-19T04:07:49;100195.09;;;-0.62;100.00
74103;BME280;62853;46.166;3.640;2023-01-19T04:10:18;100195.19;;;-0.67;100.00
74103;BME280;62853;46.166;3.640;2023-01-19T04:12:44;100189.31;;;-0.75;100.00
74103;BME280;62853;46.166;3.640;2023-01-19T04:15:10;100204.78;;;-0.73;100.00
74103;BME280;62853;46.166;3.640;2023-01-19T04:17:35;100203.97;;;-0.76;100.00
74103;BME280;62853;46.166;3.640;2023-01-19T04:20:01;100212.44;;;-0.67;100.00
74103;BME280;62853;46.166;3.640;2023-01-19T04:22:26;100202.97;;;-0.68;100.00
74103;BME280;62853;46.166;3.640;2023-01-19T04:24:51;100191.13;;;-0.80;100.00
74103;BME280;62853;46.166;3.640;2023-01-19T04:27:17;100216.94;;;-0.77;100.00
74103;BME280;62853;46.166;3.640;2023-01-19T04:29:42;100222.91;;;-0.75;100.00
74103;BME280;62853;46.166;3.640;2023-01-19T04:32:08;100229.81;;;-0.76;100.00
74103;BME280;62853;46.166;3.640;2023-01-19T04:34:33;100223.00;;;-0.80;100.00
74103;BME280;62853;46.166;3.640;2023-01-19T04:36:59;100229.84;;;-0.77;100.00
74103;BME280;62853;46.166;3.640;2023-01-19T04:39:24;100234.06;;;-0.71;100.00
74103;BME280;62853;46.166;3.640;2023-01-19T04:41:50;100246.97;;;-0.71;100.00
74103;BME280;62853;46.166;3.640;2023-01-19T04:44:18;100245.31;;;-0.74;100.00
74103;BME280;62853;46.166;3.640;2023-01-19T04:46:43;100251.31;;;-0.72;100.00
74103;BME280;62853;46.166;3.640;2023-01-19T04:49:09;100250.50;;;-0.76;100.00
74103;BME280;62853;46.166;3.640;2023-01-19T04:51:35;100241.84;;;-0.75;100.00
74103;BME280;62853;46.166;3.640;2023-01-19T04:54:01;100250.50;;;-0.76;100.00
74103;BME280;62853;46.166;3.640;2023-01-19T04:56:27;100234.22;;;-0.81;100.00
74103;BME280;62853;46.166;3.640;2023-01-19T04:58:53;100250.31;;;-0.65;100.00
74103;BME280;62853;46.166;3.640;2023-01-19T05:01:18;100247.88;;;-0.72;100.00
74103;BME280;62853;46.166;3.640;2023-01-19T05:03:43;100241.97;;;-0.79;100.00
74103;BME280;62853;46.166;3.640;2023-01-19T05:06:09;100240.16;;;-0.74;100.00
74103;BME280;62853;46.166;3.640;2023-01-19T05:08:34;100238.50;;;-0.80;100.00
74103;BME280;62853;46.166;3.640;2023-01-19T05:11:00;100242.59;;;-0.68;100.00
74103;BME280;62853;46.166;3.640;2023-01-19T05:13:25;100233.97;;;-0.67;100.00
74103;BME280;62853;46.166;3.640;2023-01-19T05:15:50;100221.97;;;-0.71;100.00
74103;BME280;62853;46.166;3.640;2023-01-19T05:18:16;100217.72;;;-0.73;100.00
74103;BME280;62853;46.166;3.640;2023-01-19T05:20:42;100208.28;;;-0.78;100.00
74103;BME280;62853;46.166;3.640;2023-01-19T05:23:07;100195.34;;;-0.76;100.00
74103;BME280;62853;46.166;3.640;2023-01-19T05:25:32;100192.88;;;-0.81;100.00
74103;BME280;62853;46.166;3.640;2023-01-19T05:27:58;100196.22;;;-0.76;100.00
74103;BME280;62853;46.166;3.640;2023-01-19T05:30:23;100197.94;;;-0.76;100.00
74103;BME280;62853;46.166;3.640;2023-01-19T05:32:49;100190.28;;;-0.81;100.00
74103;BME280;62853;46.166;3.640;2023-01-19T05:35:14;100191.16;;;-0.82;100.00
74103;BME280;62853;46.166;3.640;2023-01-19T05:37:41;100217.81;;;-0.80;100.00
74103;BME280;62853;46.166;3.640;2023-01-19T05:40:08;100224.75;;;-0.82;100.00
74103;BME280;62853;46.166;3.640;2023-01-19T05:42:33;100242.81;;;-0.79;100.00
74103;BME280;62853;46.166;3.640;2023-01-19T05:44:59;100237.59;;;-0.77;100.00
74103;BME280;62853;46.166;3.640;2023-01-19T05:47:28;100241.91;;;-0.78;100.00
74103;BME280;62853;46.166;3.640;2023-01-19T05:49:53;100240.19;;;-0.77;100.00
74103;BME280;62853;46.166;3.640;2023-01-19T05:52:19;100247.06;;;-0.76;100.00
74103;BME280;62853;46.166;3.640;2023-01-19T05:54:44;100230.66;;;-0.75;100.00
74103;BME280;62853;46.166;3.640;2023-01-19T05:57:10;100245.38;;;-0.79;100.00
74103;BME280;62853;46.166;3.640;2023-01-19T05:59:36;100249.63;;;-0.76;100.00
74103;BME280;62853;46.166;3.640;2023-01-19T06:02:01;100241.09;;;-0.80;100.00
74103;BME280;62853;46.166;3.640;2023-01-19T06:04:27;100240.16;;;-0.74;100.00
74103;BME280;62853;46.166;3.640;2023-01-19T06:06:52;100231.53;;;-0.76;100.00
74103;BME280;62853;46.166;3.640;2023-01-19T06:09:17;100226.38;;;-0.78;100.00
74103;BME280;62853;46.166;3.640;2023-01-19T06:11:43;100234.22;;;-0.79;100.00
74103;BME280;62853;46.166;3.640;2023-01-19T06:14:10;100239.25;;;-0.73;100.00
74103;BME280;62853;46.166;3.640;2023-01-19T06:16:36;100253.91;;;-0.72;100.00
74103;BME280;62853;46.166;3.640;2023-01-19T06:19:01;100246.16;;;-0.73;100.00
74103;BME280;62853;46.166;3.640;2023-01-19T06:21:27;100251.34;;;-0.73;100.00
74103;BME280;62853;46.166;3.640;2023-01-19T06:23:52;100243.63;;;-0.77;100.00
74103;BME280;62853;46.166;3.640;2023-01-19T06:26:17;100259.94;;;-0.73;100.00
74103;BME280;62853;46.166;3.640;2023-01-19T06:28:43;100259.13;;;-0.75;100.00
74103;BME280;62853;46.166;3.640;2023-01-19T06:31:08;100253.97;;;-0.77;100.00
74103;BME280;62853;46.166;3.640;2023-01-19T06:33:33;100263.47;;;-0.77;100.00
74103;BME280;62853;46.166;3.640;2023-01-19T06:35:59;100272.03;;;-0.75;100.00
74103;BME280;62853;46.166;3.640;2023-01-19T06:38:24;100279.81;;;-0.77;100.00
74103;BME280;62853;46.166;3.640;2023-01-19T06:40:55;100284.09;;;-0.72;100.00
74103;BME280;62853;46.166;3.640;2023-01-19T06:43:24;100289.28;;;-0.74;100.00
74103;BME280;62853;46.166;3.640;2023-01-19T06:45:50;100284.03;;;-0.71;100.00
74103;BME280;62853;46.166;3.640;2023-01-19T06:48:17;100295.25;;;-0.70;100.00
74103;BME280;62853;46.166;3.640;2023-01-19T06:50:46;100300.44;;;-0.72;100.00
74103;BME280;62853;46.166;3.640;2023-01-19T06:53:12;100301.38;;;-0.78;100.00
74103;BME280;62853;46.166;3.640;2023-01-19T06:55:38;100302.19;;;-0.74;100.00
74103;BME280;62853;46.166;3.640;2023-01-19T06:58:03;100314.22;;;-0.73;100.00
74103;BME280;62853;46.166;3.640;2023-01-19T07:00:29;100314.25;;;-0.75;100.00
74103;BME280;62853;46.166;3.640;2023-01-19T07:02:55;100316.81;;;-0.73;100.00
74103;BME280;62853;46.166;3.640;2023-01-19T07:05:20;100315.97;;;-0.73;100.00
74103;BME280;62853;46.166;3.640;2023-01-19T07:07:51;100308.25;;;-0.77;100.00
74103;BME280;62853;46.166;3.640;2023-01-19T07:10:16;100315.13;;;-0.74;100.00
74103;BME280;62853;46.166;3.640;2023-01-19T07:12:42;100308.25;;;-0.77;100.00
74103;BME280;62853;46.166;3.640;2023-01-19T07:15:10;100301.38;;;-0.78;100.00
74103;BME280;62853;46.166;3.640;2023-01-19T07:17:36;100310.81;;;-0.73;100.00
74103;BME280;62853;46.166;3.640;2023-01-19T07:20:01;100314.22;;;-0.73;100.00
74103;BME280;62853;46.166;3.640;2023-01-19T07:22:27;100314.25;;;-0.75;100.00
74103;BME280;62853;46.166;3.640;2023-01-19T07:24:52;100312.53;;;-0.72;100.00
74103;BME280;62853;46.166;3.640;2023-01-19T07:27:17;100314.31;;;-0.78;100.00
74103;BME280;62853;46.166;3.640;2023-01-19T07:29:43;100323.75;;;-0.75;100.00
74103;BME280;62853;46.166;3.640;2023-01-19T07:32:08;100333.22;;;-0.72;100.00
74103;BME280;62853;46.166;3.640;2023-01-19T07:34:34;100330.69;;;-0.77;100.00
74103;BME280;62853;46.166;3.640;2023-01-19T07:37:00;100327.22;;;-0.76;100.00
74103;BME280;62853;46.166;3.640;2023-01-19T07:39:26;100341.81;;;-0.72;100.00
74103;BME280;62853;46.166;3.640;2023-01-19T07:41:51;100328.97;;;-0.78;100.00
74103;BME280;62853;46.166;3.640;2023-01-19T07:44:17;100341.88;;;-0.77;100.00
74103;BME280;62853;46.166;3.640;2023-01-19T07:46:42;100352.16;;;-0.72;100.00
74103;BME280;62853;46.166;3.640;2023-01-19T07:49:08;100344.50;;;-0.78;100.00
74103;BME280;62853;46.166;3.640;2023-01-19T07:51:34;100358.25;;;-0.78;100.00
74103;BME280;62853;46.166;3.640;2023-01-19T07:53:59;100362.53;;;-0.73;100.00
74103;BME280;62853;46.166;3.640;2023-01-19T07:56:26;100367.66;;;-0.72;100.00
74103;BME280;62853;46.166;3.640;2023-01-19T07:58:53;100358.25;;;-0.76;100.00
74103;BME280;62853;46.166;3.640;2023-01-19T08:01:19;100365.03;;;-0.69;100.00
74103;BME280;62853;46.166;3.640;2023-01-19T08:03:47;100367.59;;;-0.67;100.00
74103;BME280;62853;46.166;3.640;2023-01-19T08:06:21;100373.63;;;-0.67;100.00
74103;BME280;62853;46.166;3.640;2023-01-19T08:08:47;100376.22;;;-0.68;100.00
74103;BME280;62853;46.166;3.640;2023-01-19T08:11:13;100364.16;;;-0.69;100.00
74103;BME280;62853;46.166;3.640;2023-01-19T08:13:39;100383.09;;;-0.66;100.00
74103;BME280;62853;46.166;3.640;2023-01-19T08:16:05;100389.97;;;-0.66;100.00
74103;BME280;62853;46.166;3.640;2023-01-19T08:18:30;100380.56;;;-0.69;100.00
74103;BME280;62853;46.166;3.640;2023-01-19T08:20:58;100385.69;;;-0.66;100.00
74103;BME280;62853;46.166;3.640;2023-01-19T08:23:24;100391.69;;;-0.64;100.00
74103;BME280;62853;46.166;3.640;2023-01-19T08:25:50;100392.50;;;-0.62;100.00
74103;BME280;62853;46.166;3.640;2023-01-19T08:28:16;100407.09;;;-0.59;100.00
74103;BME280;62853;46.166;3.640;2023-01-19T08:30:42;100408.03;;;-0.63;100.00
74103;BME280;62853;46.166;3.640;2023-01-19T08:33:09;100398.56;;;-0.64;100.00
74103;BME280;62853;46.166;3.640;2023-01-19T08:35:37;100410.56;;;-0.59;100.00
74103;BME280;62853;46.166;3.640;2023-01-19T08:38:04;100405.34;;;-0.55;100.00
74103;BME280;62853;46.166;3.640;2023-01-19T08:40:31;100419.13;;;-0.55;100.00
74103;BME280;62853;46.166;3.640;2023-01-19T08:43:01;100420.00;;;-0.56;100.00
74103;BME280;62853;46.166;3.640;2023-01-19T08:45:29;100425.16;;;-0.54;100.00
74103;BME280;62853;46.166;3.640;2023-01-19T08:47:55;100428.63;;;-0.55;100.00
74103;BME280;62853;46.166;3.640;2023-01-19T08:50:25;100419.97;;;-0.54;100.00
74103;BME280;62853;46.166;3.640;2023-01-19T08:52:51;100430.28;;;-0.51;100.00
74103;BME280;62853;46.166;3.640;2023-01-19T08:55:16;100431.91;;;-0.46;100.00
74103;BME280;62853;46.166;3.640;2023-01-19T08:57:42;100437.97;;;-0.47;100.00
74103;BME280;62853;46.166;3.640;2023-01-19T09:00:08;100443.16;;;-0.47;100.00
74103;BME280;62853;46.166;3.640;2023-01-19T09:02:35;100441.28;;;-0.37;100.00
74103;BME280;62853;46.166;3.640;2023-01-19T09:05:01;100445.47;;;-0.31;100.00
74103;BME280;62853;46.166;3.640;2023-01-19T09:07:29;100445.56;;;-0.38;100.00
74103;BME280;62853;46.166;3.640;2023-01-19T09:09:54;100448.16;;;-0.38;100.00
74103;BME280;62853;46.166;3.640;2023-01-19T09:12:20;100452.41;;;-0.33;100.00
74103;BME280;62853;46.166;3.640;2023-01-19T09:14:45;100456.72;;;-0.34;100.00
74103;BME280;62853;46.166;3.640;2023-01-19T09:17:10;100457.44;;;-0.26;100.00
74103;BME280;62853;46.166;3.640;2023-01-19T09:19:36;100454.06;;;-0.29;100.00
74103;BME280;62853;46.166;3.640;2023-01-19T09:22:01;100457.41;;;-0.23;100.00
74103;BME280;62853;46.166;3.640;2023-01-19T09:24:27;100459.16;;;-0.23;100.00
74103;BME280;62853;46.166;3.640;2023-01-19T09:26:52;100466.78;;;-0.17;100.00
74103;BME280;62853;46.166;3.640;2023-01-19T09:29:18;100475.41;;;-0.15;100.00
74103;BME280;62853;46.166;3.640;2023-01-19T09:31:43;100463.31;;;-0.14;100.00
74103;BME280;62853;46.166;3.640;2023-01-19T09:34:09;100471.13;;;-0.17;100.00
74103;BME280;62853;46.166;3.640;2023-01-19T09:36:36;100466.91;;;-0.22;100.00
74103;BME280;62853;46.166;3.640;2023-01-19T09:39:03;100468.53;;;-0.17;100.00
74103;BME280;62853;46.166;3.640;2023-01-19T09:41:30;100465.19;;;-0.24;100.00
74103;BME280;62853;46.166;3.640;2023-01-19T09:43:58;100472.97;;;-0.24;100.00
74103;BME280;62853;46.166;3.640;2023-01-19T09:46:37;100478.91;;;-0.19;100.00
74103;BME280;62853;46.166;3.640;2023-01-19T09:49:15;100473.75;;;-0.19;100.00
74103;BME280;62853;46.166;3.640;2023-01-19T09:51:44;100480.59;;;-0.15;100.00
74103;BME280;62853;46.166;3.640;2023-01-19T09:54:30;100491.63;;;-0.05;100.00
74103;BME280;62853;46.166;3.640;2023-01-19T09:57:00;100489.84;;;0.00;100.00
74103;BME280;62853;46.166;3.640;2023-01-19T09:59:28;100494.91;;;0.05;100.00
74103;BME280;62853;46.166;3.640;2023-01-19T10:04:39;100484.53;;;0.06;100.00
74103;BME280;62853;46.166;3.640;2023-01-19T10:07:21;100499.91;;;0.17;100.00
74103;BME280;62853;46.166;3.640;2023-01-19T10:20:41;100501.19;;;-0.10;100.00
74103;BME280;62853;46.166;3.640;2023-01-19T10:25:59;100506.25;;;-0.01;100.00
74103;BME280;62853;46.166;3.640;2023-01-19T10:28:26;100501.00;;;0.04;100.00
74103;BME280;62853;46.166;3.640;2023-01-19T10:30:53;100506.03;;;0.11;100.00
74103;BME280;62853;46.166;3.640;2023-01-19T10:33:19;100503.31;;;0.19;100.00
74103;BME280;62853;46.166;3.640;2023-01-19T10:35:44;100504.13;;;0.21;100.00
74103;BME280;62853;46.166;3.640;2023-01-19T10:38:13;100511.22;;;0.10;100.00
74103;BME280;62853;46.166;3.640;2023-01-19T10:40:51;100521.47;;;0.17;100.00
74103;BME280;62853;46.166;3.640;2023-01-19T10:46:00;100511.69;;;0.33;100.00
74103;BME280;62853;46.166;3.640;2023-01-19T10:48:38;100513.47;;;0.30;100.00
74103;BME280;62853;46.166;3.640;2023-01-19T10:51:13;100508.34;;;0.27;100.00
74103;BME280;62853;46.166;3.640;2023-01-19T10:53:39;100512.69;;;0.26;100.00
74103;BME280;62853;46.166;3.640;2023-01-19T10:56:15;100504.09;;;0.24;100.00
74103;BME280;62853;46.166;3.640;2023-01-19T10:58:41;100515.19;;;0.31;100.00
74103;BME280;62853;46.166;3.640;2023-01-19T11:01:21;100502.22;;;0.32;100.00
74103;BME280;62853;46.166;3.640;2023-01-19T11:03:47;100515.00;;;0.42;100.00
74103;BME280;62853;46.166;3.640;2023-01-19T11:08:42;100516.69;;;0.44;100.00
74103;BME280;62853;46.166;3.640;2023-01-19T11:11:08;100515.97;;;0.36;100.00
74103;BME280;62853;46.166;3.640;2023-01-19T11:13:39;100512.63;;;0.29;100.00
74103;BME280;62853;46.166;3.640;2023-01-19T11:16:07;100519.59;;;0.27;100.00
74103;BME280;62853;46.166;3.640;2023-01-19T11:18:39;100518.81;;;0.22;100.00
74103;BME280;62853;46.166;3.640;2023-01-19T11:21:09;100517.97;;;0.20;100.00
74103;BME280;62853;46.166;3.640;2023-01-19T11:23:38;100515.31;;;0.23;100.00
74103;BME280;62853;46.166;3.640;2023-01-19T11:26:13;100519.50;;;0.30;100.00
74103;BME280;62853;46.166;3.640;2023-01-19T11:28:47;100519.34;;;0.41;100.00
74103;BME280;62853;46.166;3.640;2023-01-19T11:33:50;100511.50;;;0.44;100.00
74103;BME280;62853;46.166;3.640;2023-01-19T11:36:20;100515.72;;;0.50;100.00
74103;BME280;62853;46.166;3.640;2023-01-19T11:38:48;100513.06;;;0.53;100.00
74103;BME280;62853;46.166;3.640;2023-01-19T11:41:19;100507.13;;;0.48;100.00
74103;BME280;62853;46.166;3.640;2023-01-19T11:43:48;100505.34;;;0.50;100.00
74103;BME280;62853;46.166;3.640;2023-01-19T11:46:16;100514.75;;;0.54;100.00
74103;BME280;62853;46.166;3.640;2023-01-19T11:48:50;100509.53;;;0.55;100.00
74103;BME280;62853;46.166;3.640;2023-01-19T11:51:22;100511.31;;;0.53;100.00
74103;BME280;62853;46.166;3.640;2023-01-19T11:53:51;100510.44;;;0.54;100.00
74103;BME280;62853;46.166;3.640;2023-01-19T11:56:20;100510.53;;;0.50;100.00
74103;BME280;62853;46.166;3.640;2023-01-19T11:58:48;100508.00;;;0.45;100.00
74103;BME280;62853;46.166;3.640;2023-01-19T12:01:32;100508.88;;;0.47;100.00
74103;BME280;62853;46.166;3.640;2023-01-19T12:04:16;100516.44;;;0.57;100.00
74103;BME280;62853;46.166;3.640;2023-01-19T12:06:47;100496.47;;;0.63;100.00
74103;BME280;62853;46.166;3.640;2023-01-19T12:09:22;100516.06;;;0.77;100.00
74103;BME280;62853;46.166;3.640;2023-01-19T12:17:06;100510.84;;;0.80;100.00
74103;BME280;62853;46.166;3.640;2023-01-19T12:19:59;100510.84;;;0.78;100.00
74103;BME280;62853;46.166;3.640;2023-01-19T12:22:28;100508.22;;;0.81;100.00
74103;BME280;62853;46.166;3.640;2023-01-19T12:24:59;100509.94;;;0.81;100.00
74103;BME280;62853;46.166;3.640;2023-01-19T12:27:37;100511.75;;;0.76;100.00
74103;BME280;62853;46.166;3.640;2023-01-19T12:30:04;100516.06;;;0.77;100.00
74103;BME280;62853;46.166;3.640;2023-01-19T12:32:34;100510.72;;;0.84;100.00
74103;BME280;62853;46.166;3.640;2023-01-19T12:35:00;100508.94;;;0.88;100.00
74103;BME280;62853;46.166;3.640;2023-01-19T12:39:56;100508.81;;;0.94;100.00
74103;BME280;62853;46.166;3.640;2023-01-19T12:42:23;100503.53;;;0.99;100.00
74103;BME280;62853;46.166;3.640;2023-01-19T12:47:30;100506.56;;;1.19;100.00
74103;BME280;62853;46.166;3.640;2023-01-19T12:49:57;100516.75;;;1.28;100.00
74103;BME280;62853;46.166;3.640;2023-01-19T12:52:38;100509.13;;;1.21;100.00
74103;BME280;62853;46.166;3.640;2023-01-19T12:55:14;100516.97;;;1.16;100.00
74103;BME280;62853;46.166;3.640;2023-01-19T12:58:21;100518.72;;;1.16;100.00
74103;BME280;62853;46.166;3.640;2023-01-19T13:00:44;100505.75;;;1.16;100.00
74103;BME280;62853;46.166;3.640;2023-01-19T13:19:14;100519.16;;;2.11;100.00
74103;BME280;62853;46.166;3.640;2023-01-19T13:21:42;100518.09;;;2.18;100.00
74103;BME280;62853;46.166;3.640;2023-01-19T13:24:16;100521.22;;;2.33;100.00
74103;BME280;62853;46.166;3.640;2023-01-19T13:29:18;100514.97;;;2.38;100.00
74103;BME280;62853;46.166;3.640;2023-01-19T13:31:44;100517.28;;;2.16;100.00
74103;BME280;62853;46.166;3.640;2023-01-19T13:34:15;100513.34;;;2.00;100.00
74103;BME280;62853;46.166;3.640;2023-01-19T13:36:44;100516.41;;;1.81;100.00
74103;BME280;62853;46.166;3.640;2023-01-19T13:39:42;100518.28;;;1.75;100.00
74103;BME280;62853;46.166;3.640;2023-01-19T13:42:16;100522.47;;;1.80;100.00
74103;BME280;62853;46.166;3.640;2023-01-19T13:44:47;100518.00;;;1.85;100.00
74103;BME280;62853;46.166;3.640;2023-01-19T13:47:41;100523.09;;;1.90;100.00
74103;BME280;62853;46.166;3.640;2023-01-19T13:50:34;100518.94;;;1.84;100.00
74103;BME280;62853;46.166;3.640;2023-01-19T13:53:00;100524.34;;;1.74;100.00
74103;BME280;62853;46.166;3.640;2023-01-19T13:55:28;100516.94;;;1.58;100.00
74103;BME280;62853;46.166;3.640;2023-01-19T13:57:54;100523.19;;;1.49;100.00
74103;BME280;62853;46.166;3.640;2023-01-19T14:00:28;100522.56;;;1.38;100.00
74103;BME280;62853;46.166;3.640;2023-01-19T14:05:32;100527.56;;;1.47;100.00
74103;BME280;62853;46.166;3.640;2023-01-19T14:13:21;100518.38;;;1.70;100.00
74103;BME280;62853;46.166;3.640;2023-01-19T14:15:50;100525.44;;;1.65;100.00
74103;BME280;62853;46.166;3.640;2023-01-19T14:20:56;100533.41;;;1.57;100.00